Time;durP1;ratioP1;P1;durP2;ratioP2;P2;SDS_P1;SDS_P2;PMS_P1;PMS_P2;Temp;Humidity;BMP_temperature;BMP_pressure;BME280_temperature;BME280_humidity;BME280_pressure;Samples;Min_cycle;Max_cycle;Signal;HPM_P1;HPM_P2
2022/01/11 00:02:02;;;;;;;8.88;4.30;;;6.10;99.90;;;;;;5030172;28;20045;-73
2022/01/11 00:05:07;;;;;;;8.75;4.25;;;6.10;99.90;;;;;;5030110;28;20034;-72
2022/01/11 00:08:12;;;;;;;6.95;3.40;;;6.10;99.90;;;;;;5029870;28;20042;-75
2022/01/11 00:11:16;;;;;;;8.13;4.20;;;6.10;99.90;;;;;;5030198;28;20042;-74
2022/01/11 00:14:20;;;;;;;9.90;4.15;;;6.10;99.90;;;;;;5029070;28;20041;-74
2022/01/11 00:17:24;;;;;;;5.13;2.63;;;6.10;99.90;;;;;;5029750;28;20046;-75
2022/01/11 00:20:29;;;;;;;4.95;2.63;;;6.20;99.90;;;;;;5031310;28;20045;-75
2022/01/11 00:26:37;;;;;;;7.57;3.95;;;6.10;99.90;;;;;;5033241;28;20041;-75
2022/01/11 00:29:44;;;;;;;7.25;3.88;;;6.10;99.90;;;;;;5032750;28;20385;-75
2022/01/11 00:32:56;;;;;;;4.35;2.83;;;6.00;99.90;;;;;;5032941;28;20472;-74
2022/01/11 00:36:02;;;;;;;6.97;3.22;;;6.00;99.90;;;;;;5033424;28;20030;-75
2022/01/11 00:39:07;;;;;;;5.22;2.42;;;6.00;99.90;;;;;;5032942;28;20041;-74
2022/01/11 00:42:11;;;;;;;7.57;3.53;;;6.00;99.90;;;;;;5033667;28;20041;-75
2022/01/11 00:45:15;;;;;;;6.32;2.88;;;5.90;99.90;;;;;;5032785;28;20202;-74
2022/01/11 00:48:20;;;;;;;6.95;3.25;;;5.80;99.90;;;;;;5032780;28;20057;-74
2022/01/11 00:51:26;;;;;;;5.40;3.25;;;5.70;99.90;;;;;;5033002;28;20049;-73
2022/01/11 00:54:31;;;;;;;9.20;2.80;;;5.50;99.90;;;;;;5033271;28;20370;-74
2022/01/11 00:57:35;;;;;;;5.20;3.03;;;5.50;99.90;;;;;;5032448;28;20038;-74
2022/01/11 01:00:39;;;;;;;10.98;3.38;;;5.50;99.90;;;;;;5032089;28;20066;-74
2022/01/11 01:03:43;;;;;;;5.32;3.08;;;5.40;99.90;;;;;;5033420;28;20499;-74
2022/01/11 01:06:47;;;;;;;10.55;3.40;;;5.30;99.90;;;;;;5033009;28;20041;-72
2022/01/11 01:10:02;;;;;;;5.75;3.88;;;5.20;99.90;;;;;;5031629;28;20045;-74
2022/01/11 01:13:17;;;;;;;5.63;3.22;;;5.20;99.90;;;;;;5032298;28;20033;-72
2022/01/11 01:16:25;;;;;;;6.97;3.47;;;5.40;99.90;;;;;;5031769;28;20030;-74
2022/01/11 01:19:36;;;;;;;7.72;2.97;;;5.40;99.90;;;;;;5031623;28;20473;-74
2022/01/11 01:22:40;;;;;;;6.78;3.40;;;5.40;99.90;;;;;;5032019;28;20037;-73
2022/01/11 01:25:46;;;;;;;9.77;4.07;;;5.20;99.90;;;;;;5032671;28;20049;-73
2022/01/11 01:28:50;;;;;;;7.97;3.53;;;5.20;99.90;;;;;;5031896;28;20249;-74
2022/01/11 01:31:55;;;;;;;8.48;3.58;;;5.20;99.90;;;;;;5031554;28;20046;-75
2022/01/11 01:35:04;;;;;;;5.85;2.75;;;5.20;99.90;;;;;;5032746;28;20488;-74
2022/01/11 01:38:09;;;;;;;8.27;2.72;;;5.30;99.90;;;;;;5030335;28;20041;-75
2022/01/11 01:41:17;;;;;;;6.22;2.55;;;5.60;99.90;;;;;;5032933;28;20053;-72
2022/01/11 01:44:21;;;;;;;8.68;3.65;;;6.10;99.90;;;;;;5032410;28;20045;-76
2022/01/11 01:47:26;;;;;;;9.10;4.72;;;6.40;99.90;;;;;;5032664;28;20053;-75
2022/01/11 01:50:31;;;;;;;16.00;7.20;;;6.20;99.90;;;;;;5032571;28;20037;-76
2022/01/11 01:53:39;;;;;;;6.22;3.28;;;5.90;99.90;;;;;;5032089;28;20048;-75
2022/01/11 01:56:44;;;;;;;6.13;3.30;;;5.70;99.90;;;;;;5032215;28;20034;-75
2022/01/11 01:59:48;;;;;;;5.68;2.65;;;5.40;99.90;;;;;;5031588;28;20045;-75
2022/01/11 02:03:08;;;;;;;4.10;2.88;;;5.50;99.90;;;;;;5031686;28;20373;-75
2022/01/11 02:06:17;;;;;;;5.32;2.53;;;5.50;99.90;;;;;;5031315;28;20045;-75
2022/01/11 02:09:21;;;;;;;4.25;2.67;;;5.60;99.90;;;;;;5031285;28;20057;-75
2022/01/11 02:12:25;;;;;;;6.03;2.60;;;5.50;99.90;;;;;;5031382;28;20038;-75
2022/01/11 02:15:29;;;;;;;4.53;2.55;;;5.40;99.90;;;;;;5031109;28;20037;-76
2022/01/11 02:18:33;;;;;;;11.30;3.97;;;5.20;99.90;;;;;;5031709;28;20037;-76
2022/01/11 02:21:46;;;;;;;7.32;2.65;;;5.10;99.90;;;;;;5030584;28;20056;-76
2022/01/11 02:24:52;;;;;;;6.30;2.45;;;5.00;99.90;;;;;;5031000;28;20045;-75
2022/01/11 02:27:57;;;;;;;6.07;2.47;;;5.00;99.90;;;;;;5030020;28;20049;-75
2022/01/11 02:31:07;;;;;;;5.22;2.28;;;5.00;99.90;;;;;;5030394;28;20602;-76
2022/01/11 02:34:15;;;;;;;4.07;2.20;;;5.00;99.90;;;;;;5030904;28;20053;-76
2022/01/11 02:37:45;;;;;;;4.50;2.75;;;5.00;99.90;;;;;;5031786;28;20037;-75
2022/01/11 02:40:52;;;;;;;5.78;2.58;;;5.00;99.90;;;;;;5030591;28;20041;-75
2022/01/11 02:43:57;;;;;;;8.30;2.67;;;4.90;99.90;;;;;;5031645;28;20049;-74
2022/01/11 02:47:04;;;;;;;5.05;3.22;;;4.90;99.90;;;;;;5030478;28;20037;-74
2022/01/11 02:50:13;;;;;;;8.82;2.92;;;4.60;99.90;;;;;;5030374;28;20472;-75
2022/01/11 02:53:21;;;;;;;4.50;2.90;;;4.50;99.90;;;;;;5030528;28;20037;-75
2022/01/11 02:56:25;;;;;;;6.95;3.72;;;4.30;99.90;;;;;;5031452;28;20033;-75
2022/01/11 02:59:30;;;;;;;7.18;3.40;;;4.30;99.90;;;;;;5030124;28;20041;-75
2022/01/11 03:02:34;;;;;;;8.15;3.50;;;4.20;99.90;;;;;;5030200;28;20037;-76
2022/01/11 03:05:44;;;;;;;4.63;2.90;;;4.10;99.90;;;;;;5030215;28;20045;-76
2022/01/11 03:08:50;;;;;;;6.35;3.08;;;4.00;99.90;;;;;;5030063;28;20034;-76
2022/01/11 03:11:56;;;;;;;5.50;3.45;;;3.90;99.90;;;;;;5018232;28;20049;-76
2022/01/11 03:15:02;;;;;;;7.47;3.15;;;3.80;99.90;;;;;;5030194;28;20369;-75
2022/01/11 03:18:07;;;;;;;9.45;3.20;;;3.70;99.90;;;;;;5029960;28;20038;-75
2022/01/11 03:21:15;;;;;;;5.88;3.05;;;3.80;99.90;;;;;;5029910;28;20041;-75
2022/01/11 03:24:20;;;;;;;6.30;2.97;;;3.80;99.90;;;;;;5030193;28;20540;-76
2022/01/11 03:27:25;;;;;;;8.70;3.50;;;3.80;99.90;;;;;;5029631;28;20041;-75
2022/01/11 03:30:31;;;;;;;8.98;3.65;;;3.60;99.90;;;;;;5029843;28;20045;-75
2022/01/11 03:33:37;;;;;;;11.65;4.07;;;3.40;99.90;;;;;;5029852;28;20030;-75
2022/01/11 03:36:40;;;;;;;6.78;3.03;;;3.40;99.90;;;;;;5029644;28;20057;-75
2022/01/11 03:39:45;;;;;;;5.45;2.55;;;3.60;99.90;;;;;;5030384;28;20037;-75
2022/01/11 03:42:49;;;;;;;11.35;3.10;;;4.00;99.90;;;;;;5029497;28;20041;-75
2022/01/11 03:45:57;;;;;;;8.00;2.65;;;4.00;99.90;;;;;;5029656;28;20381;-75
2022/01/11 03:49:00;;;;;;;7.15;2.65;;;3.90;99.90;;;;;;5029498;28;20491;-75
2022/01/11 03:52:07;;;;;;;5.03;2.60;;;3.80;99.90;;;;;;5029402;28;20484;-75
2022/01/11 03:55:20;;;;;;;6.93;2.53;;;3.80;99.90;;;;;;5029100;28;20485;-75
2022/01/11 03:58:29;;;;;;;6.28;2.80;;;3.70;99.90;;;;;;5029543;28;20037;-75
2022/01/11 04:01:35;;;;;;;4.57;2.42;;;3.70;99.90;;;;;;5030356;28;20034;-75
2022/01/11 04:04:40;;;;;;;7.53;2.78;;;3.70;99.90;;;;;;5029577;28;20045;-74
2022/01/11 04:07:44;;;;;;;9.57;2.55;;;3.90;99.90;;;;;;5030633;28;20049;-74
2022/01/11 04:10:50;;;;;;;4.78;2.47;;;4.10;99.90;;;;;;5029503;28;20050;-75
2022/01/11 04:13:55;;;;;;;4.93;2.33;;;4.20;99.90;;;;;;5029454;28;20037;-75
2022/01/11 04:17:01;;;;;;;4.10;2.63;;;4.20;99.90;;;;;;5029591;28;20045;-75
2022/01/11 04:20:07;;;;;;;6.03;3.03;;;4.20;99.90;;;;;;5030109;28;20041;-75
2022/01/11 04:23:13;;;;;;;4.05;2.25;;;4.10;99.90;;;;;;5029534;28;20045;-75
2022/01/11 04:26:17;;;;;;;8.95;2.70;;;4.10;99.90;;;;;;5028943;28;20045;-74
2022/01/11 04:29:22;;;;;;;6.82;2.40;;;4.10;99.90;;;;;;5028527;28;20041;-74
2022/01/11 04:32:28;;;;;;;8.25;2.60;;;4.30;99.90;;;;;;5029408;28;20042;-75
2022/01/11 04:35:33;;;;;;;5.05;2.22;;;4.40;99.90;;;;;;5029273;28;20041;-75
2022/01/11 04:38:37;;;;;;;5.25;2.35;;;4.40;99.90;;;;;;5028952;28;20378;-75
2022/01/11 04:41:42;;;;;;;6.22;2.47;;;4.20;99.90;;;;;;5029432;28;20045;-75
2022/01/11 04:44:47;;;;;;;4.82;2.20;;;4.20;99.90;;;;;;5028919;28;20054;-75
2022/01/11 04:47:56;;;;;;;7.45;2.33;;;4.10;99.90;;;;;;5028999;28;20057;-75
2022/01/11 04:51:04;;;;;;;3.72;2.42;;;4.00;99.90;;;;;;5028962;28;20042;-75
2022/01/11 04:54:10;;;;;;;4.60;2.40;;;4.00;99.90;;;;;;5029040;28;20532;-75
2022/01/11 04:57:14;;;;;;;5.88;2.95;;;4.00;99.90;;;;;;5028951;28;20033;-75
2022/01/11 05:00:19;;;;;;;7.20;3.28;;;4.00;99.90;;;;;;5029014;28;20045;-76
2022/01/11 05:03:23;;;;;;;5.50;2.65;;;4.00;99.90;;;;;;5017550;28;20034;-76
2022/01/11 05:06:32;;;;;;;9.05;2.92;;;4.00;99.90;;;;;;5030199;28;20469;-76
2022/01/11 05:09:36;;;;;;;8.50;2.97;;;4.20;99.90;;;;;;5020973;28;20045;-75
2022/01/11 05:12:42;;;;;;;5.32;3.05;;;4.20;99.90;;;;;;5032486;28;20041;-75
2022/01/11 05:15:47;;;;;;;5.35;2.40;;;4.20;99.90;;;;;;5032328;28;20037;-75
2022/01/11 05:18:51;;;;;;;4.93;2.45;;;4.20;99.90;;;;;;5031999;28;20477;-75
2022/01/11 05:21:55;;;;;;;5.03;2.50;;;4.40;99.90;;;;;;5032306;28;20046;-74
2022/01/11 05:24:59;;;;;;;6.30;2.42;;;4.60;99.90;;;;;;5033010;28;20046;-75
2022/01/11 05:28:03;;;;;;;3.97;2.40;;;4.70;99.90;;;;;;5031589;28;20046;-75
2022/01/11 05:31:07;;;;;;;4.57;2.67;;;4.60;99.90;;;;;;5032096;28;20037;-75
2022/01/11 05:34:11;;;;;;;12.73;3.35;;;4.80;99.90;;;;;;5031635;28;20481;-75
2022/01/11 05:37:16;;;;;;;12.73;3.60;;;4.40;99.90;;;;;;5032111;28;20044;-75
2022/01/11 05:40:21;;;;;;;23.13;4.80;;;4.10;99.90;;;;;;5031299;28;20045;-75
2022/01/11 05:43:26;;;;;;;8.77;3.95;;;3.90;99.90;;;;;;5031530;28;20048;-75
2022/01/11 05:46:31;;;;;;;11.50;4.50;;;3.80;99.90;;;;;;5031589;28;20413;-75
2022/01/11 05:49:36;;;;;;;9.55;3.45;;;3.80;99.90;;;;;;5031114;28;20053;-75
2022/01/11 05:52:42;;;;;;;6.38;3.28;;;3.70;99.90;;;;;;5031674;28;20041;-75
2022/01/11 05:55:47;;;;;;;7.60;3.70;;;3.60;99.90;;;;;;5031324;28;20382;-75
2022/01/11 05:58:52;;;;;;;11.52;4.18;;;3.60;99.90;;;;;;5031309;28;20361;-75
2022/01/11 06:01:56;;;;;;;8.82;3.30;;;3.70;99.90;;;;;;5031631;28;20052;-75
2022/01/11 06:05:00;;;;;;;11.95;3.28;;;3.80;99.90;;;;;;5031521;28;20041;-75
2022/01/11 06:08:06;;;;;;;9.45;3.60;;;3.80;99.90;;;;;;5031244;28;20064;-75
2022/01/11 06:11:12;;;;;;;21.23;4.40;;;3.80;99.90;;;;;;5031202;28;20041;-74
2022/01/11 06:14:19;;;;;;;7.80;2.90;;;3.70;99.90;;;;;;5031299;28;20495;-75
2022/01/11 06:17:24;;;;;;;8.38;2.92;;;3.70;99.90;;;;;;5030983;28;20469;-75
2022/01/11 06:20:28;;;;;;;7.10;3.03;;;4.40;99.90;;;;;;5030867;28;20377;-75
2022/01/11 06:23:32;;;;;;;5.15;2.40;;;4.70;99.90;;;;;;5031128;28;20037;-75
2022/01/11 06:26:36;;;;;;;6.32;2.55;;;4.90;99.90;;;;;;5031077;28;20037;-75
2022/01/11 06:29:41;;;;;;;7.20;2.70;;;5.10;99.90;;;;;;5031089;28;20045;-75
2022/01/11 06:32:45;;;;;;;10.30;3.50;;;5.20;99.90;;;;;;5032062;28;20377;-75
2022/01/11 06:35:49;;;;;;;10.40;3.30;;;5.40;99.90;;;;;;5030461;28;20052;-75
2022/01/11 06:38:56;;;;;;;7.75;3.65;;;5.10;99.90;;;;;;5030837;28;20048;-75
2022/01/11 06:42:05;;;;;;;6.78;3.70;;;4.80;99.90;;;;;;5030382;28;20049;-76
2022/01/11 06:45:11;;;;;;;9.60;3.13;;;4.60;99.90;;;;;;5030649;28;20068;-74
2022/01/11 06:48:15;;;;;;;6.30;2.83;;;5.00;99.90;;;;;;5030404;28;20484;-75
2022/01/11 06:51:19;;;;;;;4.20;2.40;;;5.10;99.90;;;;;;5030424;28;20041;-74
2022/01/11 06:54:26;;;;;;;6.38;2.38;;;5.10;99.90;;;;;;5030387;28;20495;-74
2022/01/11 06:57:31;;;;;;;6.18;2.80;;;5.60;99.90;;;;;;5030625;28;20390;-75
2022/01/11 07:00:36;;;;;;;14.90;3.88;;;5.70;99.90;;;;;;5030862;28;20370;-76
2022/01/11 07:03:46;;;;;;;8.73;3.13;;;5.40;99.90;;;;;;5030638;28;20052;-76
2022/01/11 07:07:01;;;;;;;5.88;2.78;;;5.00;99.90;;;;;;5030299;28;20382;-76
2022/01/11 07:10:06;;;;;;;7.47;3.85;;;4.80;99.90;;;;;;5030892;28;20037;-75
2022/01/11 07:13:10;;;;;;;8.18;4.00;;;4.70;99.90;;;;;;5029759;28;20042;-75
2022/01/11 07:16:16;;;;;;;8.95;3.92;;;4.50;99.90;;;;;;5029983;28;20029;-75
2022/01/11 07:19:20;;;;;;;9.25;3.90;;;4.50;99.90;;;;;;5030734;28;20041;-75
2022/01/11 07:22:28;;;;;;;7.75;3.25;;;4.50;99.90;;;;;;5029413;28;20489;-74
2022/01/11 07:25:33;;;;;;;14.63;3.30;;;4.30;99.90;;;;;;5030830;28;20365;-75
2022/01/11 07:28:39;;;;;;;11.85;3.50;;;4.30;99.90;;;;;;5029636;28;20124;-75
2022/01/11 07:31:48;;;;;;;7.72;3.55;;;4.30;99.90;;;;;;5026335;28;20049;-75
2022/01/11 07:34:55;;;;;;;9.05;3.78;;;4.40;99.90;;;;;;5016319;28;20038;-74
2022/01/11 07:38:00;;;;;;;4.80;3.30;;;4.50;99.90;;;;;;5028689;28;20469;-75
2022/01/11 07:41:06;;;;;;;17.38;4.22;;;4.50;99.90;;;;;;5021598;28;20049;-73
2022/01/11 07:44:58;;;;;;;10.40;3.92;;;4.40;99.90;;;;;;4984806;28;20053;-75
2022/01/11 07:48:05;;;;;;;8.57;3.22;;;4.30;99.90;;;;;;5029306;28;20056;-75
2022/01/11 07:51:17;;;;;;;7.97;3.00;;;4.30;99.90;;;;;;5023408;28;20500;-76
2022/01/11 07:54:22;;;;;;;6.20;2.83;;;4.50;99.90;;;;;;5023682;28;20033;-76
2022/01/11 07:57:26;;;;;;;5.93;3.08;;;4.60;99.90;;;;;;5026966;28;20038;-75
2022/01/11 08:00:31;;;;;;;6.10;3.33;;;4.70;99.90;;;;;;5024497;28;20373;-74
2022/01/11 08:03:36;;;;;;;9.43;3.20;;;4.90;99.90;;;;;;5013530;28;20042;-75
2022/01/11 08:06:51;;;;;;;9.55;4.22;;;5.30;99.90;;;;;;5027876;28;20046;-76
2022/01/11 08:10:06;;;;;;;7.47;3.72;;;5.80;99.90;;;;;;5015664;28;20034;-76
2022/01/11 08:13:11;;;;;;;8.00;3.00;;;6.30;99.90;;;;;;5014119;28;20500;-75
2022/01/11 08:16:19;;;;;;;6.45;2.90;;;7.50;99.90;;;;;;5020717;28;20033;-76
2022/01/11 08:19:26;;;;;;;8.35;2.95;;;8.90;99.90;;;;;;5021140;28;20042;-76
2022/01/11 08:22:33;;;;;;;7.28;2.85;;;10.90;99.90;;;;;;5025224;28;20041;-76
2022/01/11 08:25:38;;;;;;;5.97;2.72;;;13.60;96.80;;;;;;5026220;28;20392;-74
2022/01/11 08:28:44;;;;;;;6.82;2.83;;;14.90;92.20;;;;;;5022522;28;20105;-75
2022/01/11 08:31:50;;;;;;;6.53;2.97;;;17.60;90.60;;;;;;5026398;28;20048;-75
2022/01/11 08:34:54;;;;;;;5.90;2.95;;;19.30;83.20;;;;;;5026994;28;20049;-75
2022/01/11 08:37:59;;;;;;;6.32;3.00;;;18.70;73.60;;;;;;5020509;28;20049;-76
2022/01/11 08:41:03;;;;;;;6.03;2.33;;;17.20;79.00;;;;;;5020496;28;20401;-76
2022/01/11 08:44:11;;;;;;;7.35;3.42;;;18.10;78.80;;;;;;5027976;28;20045;-75
2022/01/11 08:47:18;;;;;;;7.25;3.22;;;18.40;74.30;;;;;;5027590;28;20060;-75
2022/01/11 08:50:24;;;;;;;4.93;2.80;;;16.60;77.60;;;;;;5025286;28;20499;-75
2022/01/11 08:53:29;;;;;;;8.48;3.10;;;18.20;76.00;;;;;;5030930;28;20068;-76
2022/01/11 08:56:35;;;;;;;5.28;2.78;;;15.10;77.20;;;;;;5018803;28;20032;-75
2022/01/11 08:59:39;;;;;;;5.15;1.70;;;17.40;79.00;;;;;;5033138;28;20037;-75
2022/01/11 09:02:51;;;;;;;7.20;2.72;;;18.70;69.90;;;;;;5018048;28;20044;-74
2022/01/11 09:05:57;;;;;;;6.57;2.30;;;17.00;70.40;;;;;;5024300;28;20045;-75
2022/01/11 09:09:03;;;;;;;5.10;3.13;;;19.60;72.60;;;;;;5031979;28;20060;-74
2022/01/11 09:12:09;;;;;;;5.95;3.20;;;21.40;70.60;;;;;;5023569;28;20052;-75
2022/01/11 09:15:19;;;;;;;3.88;1.60;;;22.70;66.70;;;;;;5012244;28;20052;-75
2022/01/11 09:18:23;;;;;;;6.07;2.70;;;21.50;60.60;;;;;;5024210;28;20037;-75
2022/01/11 09:21:31;;;;;;;4.65;2.75;;;19.70;65.00;;;;;;5027945;28;20052;-75
2022/01/11 09:24:36;;;;;;;5.50;2.35;;;21.10;64.00;;;;;;5029385;28;20052;-75
2022/01/11 09:27:42;;;;;;;3.78;2.10;;;22.20;66.10;;;;;;5022553;28;20049;-76
2022/01/11 09:30:47;;;;;;;5.97;2.80;;;20.90;64.70;;;;;;5029426;28;20040;-75
2022/01/11 09:33:52;;;;;;;3.72;2.55;;;24.10;63.50;;;;;;5024806;28;20048;-76
2022/01/11 09:36:57;;;;;;;5.40;2.83;;;26.50;58.10;;;;;;5029060;28;20053;-75
2022/01/11 09:40:05;;;;;;;5.38;3.00;;;28.00;57.30;;;;;;5020556;28;20590;-71
2022/01/11 09:43:12;;;;;;;8.15;3.10;;;21.20;57.70;;;;;;5018526;28;20064;-73
2022/01/11 09:46:18;;;;;;;6.28;3.13;;;20.80;64.50;;;;;;5018916;28;20488;-73
2022/01/11 09:49:23;;;;;;;5.82;3.22;;;18.90;62.10;;;;;;5024801;28;20052;-74
2022/01/11 09:52:31;;;;;;;7.68;3.30;;;17.10;66.20;;;;;;5025881;28;20099;-73
2022/01/11 09:55:37;;;;;;;5.97;2.97;;;14.50;67.50;;;;;;5026499;28;20052;-74
2022/01/11 09:58:43;;;;;;;6.78;3.28;;;13.90;70.50;;;;;;5023193;28;20048;-73
2022/01/11 10:02:15;;;;;;;6.28;3.33;;;13.70;75.00;;;;;;5020503;28;20048;-75
2022/01/11 10:05:39;;;;;;;5.13;2.83;;;18.20;66.20;;;;;;5019894;28;20048;-74
2022/01/11 10:08:50;;;;;;;7.75;2.80;;;19.70;65.00;;;;;;5026077;28;20040;-74
2022/01/11 10:11:57;;;;;;;6.80;3.35;;;21.50;63.00;;;;;;5024894;28;20044;-74
2022/01/11 10:15:03;;;;;;;4.68;2.85;;;21.40;61.10;;;;;;5017436;28;20272;-75
2022/01/11 10:18:07;;;;;;;10.35;3.30;;;20.90;65.60;;;;;;5024515;28;20052;-75
2022/01/11 10:21:31;;;;;;;7.43;2.88;;;23.40;60.40;;;;;;5022887;28;20056;-74
2022/01/11 10:24:42;;;;;;;3.45;1.67;;;22.50;60.90;;;;;;5017614;28;20471;-74
2022/01/11 10:28:05;;;;;;;3.28;2.30;;;23.10;57.80;;;;;;5012849;28;20049;-75
2022/01/11 10:31:11;;;;;;;5.15;2.03;;;25.30;57.20;;;;;;5020427;28;20052;-75
2022/01/11 10:34:31;;;;;;;5.40;2.47;;;25.70;55.60;;;;;;5023742;28;20393;-72
2022/01/11 10:37:41;;;;;;;3.50;2.13;;;25.50;54.40;;;;;;5019330;28;20037;-75
2022/01/11 10:40:46;;;;;;;7.47;2.83;;;25.70;52.70;;;;;;5018483;28;20049;-73
2022/01/11 10:43:52;;;;;;;6.50;3.25;;;19.50;57.40;;;;;;5021541;28;20579;-76
2022/01/11 10:47:02;;;;;;;4.35;2.70;;;19.70;62.00;;;;;;5018786;28;20380;-75
2022/01/11 10:50:18;;;;;;;6.78;2.97;;;21.80;58.40;;;;;;5016246;28;20358;-76
2022/01/11 10:53:32;;;;;;;3.90;2.08;;;23.80;56.70;;;;;;5025159;28;20036;-76
2022/01/11 10:56:41;;;;;;;3.70;2.10;;;22.00;57.60;;;;;;5018425;28;20049;-74
2022/01/11 11:00:09;;;;;;;2.47;1.63;;;23.30;56.00;;;;;;5010287;28;20040;-74
2022/01/11 11:03:17;;;;;;;4.03;1.60;;;25.80;56.00;;;;;;5019903;28;20060;-71
2022/01/11 11:06:29;;;;;;;3.35;1.70;;;26.10;53.30;;;;;;5014195;28;20041;-72
2022/01/11 11:09:47;;;;;;;4.70;1.63;;;24.80;52.60;;;;;;5013686;28;20536;-74
2022/01/11 11:12:54;;;;;;;4.40;1.50;;;25.80;52.90;;;;;;5018089;28;20044;-75
2022/01/11 11:16:09;;;;;;;2.20;1.60;;;27.20;53.50;;;;;;5020853;28;20286;-74
2022/01/11 11:19:13;;;;;;;2.40;1.50;;;27.70;51.40;;;;;;5021581;28;20048;-73
2022/01/11 11:22:32;;;;;;;4.00;2.00;;;27.00;51.80;;;;;;5025110;28;20041;-74
2022/01/11 11:25:35;;;;;;;2.63;1.75;;;26.60;52.30;;;;;;5011912;28;20060;-75
2022/01/11 11:28:41;;;;;;;3.13;1.80;;;28.00;52.30;;;;;;5014442;28;20045;-75
2022/01/11 11:31:47;;;;;;;3.83;1.95;;;29.20;50.60;;;;;;5022803;28;20388;-75
2022/01/11 11:34:53;;;;;;;2.90;1.80;;;30.30;51.00;;;;;;5026917;28;20413;-75
2022/01/11 11:38:01;;;;;;;3.15;1.85;;;30.10;51.40;;;;;;5023337;28;20045;-75
2022/01/11 11:41:07;;;;;;;3.55;1.77;;;30.40;50.40;;;;;;5015282;28;20488;-75
2022/01/11 11:44:24;;;;;;;3.25;1.70;;;30.90;49.90;;;;;;5019319;28;20409;-75
2022/01/11 11:47:31;;;;;;;3.88;1.77;;;31.70;48.90;;;;;;5014303;28;20056;-75
2022/01/11 11:50:48;;;;;;;3.08;1.65;;;29.20;48.40;;;;;;5014416;28;20053;-73
2022/01/11 11:53:53;;;;;;;3.10;1.98;;;28.70;46.80;;;;;;5020606;28;20045;-75
2022/01/11 11:57:01;;;;;;;3.55;2.03;;;25.50;48.30;;;;;;5015034;28;20037;-74
2022/01/11 12:00:17;;;;;;;5.20;1.85;;;26.60;50.60;;;;;;5028906;28;20044;-76
2022/01/11 12:03:25;;;;;;;3.17;1.75;;;27.50;51.20;;;;;;5015787;28;20787;-76
2022/01/11 12:06:31;;;;;;;6.03;2.00;;;28.10;47.60;;;;;;5019150;28;20041;-76
2022/01/11 12:09:44;;;;;;;3.10;1.92;;;26.90;51.50;;;;;;5011459;28;20041;-76
2022/01/11 12:12:54;;;;;;;3.40;2.10;;;27.10;50.80;;;;;;5024068;28;20052;-76
2022/01/11 12:15:58;;;;;;;6.93;2.10;;;26.90;50.40;;;;;;5026849;28;20056;-75
2022/01/11 12:19:40;;;;;;;3.40;1.80;;;27.10;51.40;;;;;;5019394;28;20049;-74
2022/01/11 12:22:53;;;;;;;6.03;2.10;;;28.50;51.30;;;;;;5016192;28;20064;-74
2022/01/11 12:26:15;;;;;;;5.30;2.30;;;29.60;49.70;;;;;;5023088;28;20033;-74
2022/01/11 12:29:23;;;;;;;3.50;1.80;;;30.20;48.20;;;;;;5026853;28;20066;-75
2022/01/11 12:32:29;;;;;;;4.25;2.17;;;30.30;49.60;;;;;;5029979;28;20053;-72
2022/01/11 12:35:33;;;;;;;3.92;1.80;;;29.90;48.40;;;;;;5026954;28;20044;-73
2022/01/11 12:39:06;;;;;;;4.30;1.95;;;29.70;47.40;;;;;;5028332;28;20044;-74
2022/01/11 12:42:26;;;;;;;3.28;2.00;;;29.10;47.70;;;;;;5014009;28;20060;-74
2022/01/11 12:46:07;;;;;;;3.75;2.08;;;26.00;48.90;;;;;;5019041;28;20045;-74
2022/01/11 12:49:12;;;;;;;4.70;1.88;;;26.80;49.10;;;;;;5013442;28;20053;-75
2022/01/11 12:52:36;;;;;;;2.45;1.60;;;27.80;50.10;;;;;;5014376;28;20389;-75
2022/01/11 12:55:44;;;;;;;3.95;1.70;;;27.20;47.90;;;;;;5013351;28;20052;-74
2022/01/11 12:58:55;;;;;;;3.67;1.88;;;28.20;47.50;;;;;;5018213;28;20048;-74
2022/01/11 13:02:09;;;;;;;3.42;2.05;;;28.50;48.40;;;;;;5019771;28;20220;-75
2022/01/11 13:05:21;;;;;;;3.95;1.40;;;28.50;48.10;;;;;;5026400;28;20061;-75
2022/01/11 13:08:30;;;;;;;2.63;1.60;;;28.60;48.30;;;;;;5025116;28;20040;-72
2022/01/11 13:11:54;;;;;;;4.55;1.90;;;27.80;47.20;;;;;;5029459;28;20054;-74
2022/01/11 13:15:37;;;;;;;2.95;1.88;;;25.90;46.70;;;;;;5030605;28;20515;-74
2022/01/11 13:18:51;;;;;;;4.95;2.10;;;25.50;49.60;;;;;;5017075;28;20077;-75
2022/01/11 13:22:10;;;;;;;4.82;2.53;;;27.10;49.40;;;;;;5013326;28;20052;-75
2022/01/11 13:25:14;;;;;;;2.75;1.50;;;28.10;46.90;;;;;;5030924;28;20400;-74
2022/01/11 13:28:22;;;;;;;3.38;2.05;;;26.40;44.00;;;;;;5011714;28;20049;-73
2022/01/11 13:31:37;;;;;;;3.78;2.10;;;22.60;48.60;;;;;;5013002;28;20061;-75
2022/01/11 13:34:49;;;;;;;7.00;2.88;;;22.60;50.00;;;;;;5023745;28;20056;-75
2022/01/11 13:37:55;;;;;;;3.97;2.70;;;23.30;48.20;;;;;;5030998;28;20048;-76
2022/01/11 13:41:02;;;;;;;6.53;4.38;;;24.20;47.80;;;;;;5032382;28;20040;-75
2022/01/11 13:44:09;;;;;;;5.40;2.70;;;23.90;45.90;;;;;;5032516;28;20060;-74
2022/01/11 13:47:16;;;;;;;5.05;2.22;;;22.30;50.00;;;;;;5025724;28;20036;-72
2022/01/11 13:50:20;;;;;;;3.38;1.90;;;21.90;49.10;;;;;;5012039;28;20401;-75
2022/01/11 13:53:29;;;;;;;3.55;1.92;;;21.50;49.70;;;;;;5018598;28;20507;-76
2022/01/11 13:56:40;;;;;;;3.58;1.90;;;22.10;50.40;;;;;;5019386;28;20049;-76
2022/01/11 13:59:56;;;;;;;4.10;2.13;;;22.70;48.20;;;;;;5015888;28;20405;-76
2022/01/11 14:03:20;;;;;;;4.95;2.50;;;23.00;49.70;;;;;;5022003;28;20048;-75
2022/01/11 14:06:24;;;;;;;3.47;2.33;;;23.90;45.80;;;;;;5014644;28;20037;-76
2022/01/11 14:09:35;;;;;;;3.47;2.03;;;24.10;47.60;;;;;;5027323;28;20045;-75
2022/01/11 14:12:45;;;;;;;5.03;2.25;;;24.00;48.50;;;;;;5021988;28;20061;-76
2022/01/11 14:15:49;;;;;;;3.40;2.20;;;23.40;48.90;;;;;;5025987;28;20052;-76
2022/01/11 14:19:09;;;;;;;2.78;2.05;;;23.70;49.00;;;;;;5024317;28;20045;-75
2022/01/11 14:22:13;;;;;;;3.72;2.20;;;23.30;50.50;;;;;;5021495;28;20048;-76
2022/01/11 14:25:24;;;;;;;5.82;2.22;;;23.40;50.00;;;;;;5022366;28;20037;-76
2022/01/11 14:28:32;;;;;;;3.42;2.40;;;23.60;49.80;;;;;;5019208;28;20053;-76
2022/01/11 14:31:37;;;;;;;7.88;2.33;;;23.90;49.80;;;;;;5022153;28;20045;-76
2022/01/11 14:34:54;;;;;;;3.10;2.10;;;24.00;50.30;;;;;;5022237;28;20041;-76
2022/01/11 14:38:08;;;;;;;2.90;1.88;;;23.80;50.00;;;;;;5025790;28;20040;-76
2022/01/11 14:41:17;;;;;;;6.20;3.28;;;22.60;50.40;;;;;;5019879;28;20048;-76
2022/01/11 14:44:24;;;;;;;10.07;6.60;;;22.20;51.20;;;;;;5021688;28;20045;-76
2022/01/11 14:47:47;;;;;;;5.70;3.30;;;22.30;51.00;;;;;;5018442;28;20040;-76
2022/01/11 14:50:51;;;;;;;8.57;3.30;;;21.70;51.50;;;;;;5025780;28;20041;-76
2022/01/11 14:53:58;;;;;;;6.97;3.95;;;20.90;53.60;;;;;;5023036;28;20056;-75
2022/01/11 14:57:14;;;;;;;6.47;2.78;;;19.50;53.60;;;;;;5024863;28;20049;-76
2022/01/11 15:00:24;;;;;;;4.80;2.85;;;19.10;55.40;;;;;;5020506;28;20515;-76
2022/01/11 15:03:42;;;;;;;3.60;2.47;;;19.00;55.10;;;;;;5029619;28;20044;-76
2022/01/11 15:06:55;;;;;;;9.15;2.67;;;19.40;55.90;;;;;;5029719;28;20080;-76
2022/01/11 15:09:59;;;;;;;5.53;2.38;;;19.20;54.70;;;;;;5014988;28;20081;-76
2022/01/11 15:13:20;;;;;;;11.38;6.68;;;18.00;52.30;;;;;;5013461;28;20271;-75
2022/01/11 15:16:27;;;;;;;6.78;2.72;;;16.30;52.50;;;;;;5015656;28;20049;-74
2022/01/11 15:19:32;;;;;;;7.32;3.28;;;13.50;56.20;;;;;;5016256;28;20037;-76
2022/01/11 15:22:36;;;;;;;9.68;4.63;;;12.80;56.10;;;;;;5021388;28;20044;-76
2022/01/11 15:25:40;;;;;;;7.63;3.72;;;12.50;56.30;;;;;;5016807;28;20040;-74
2022/01/11 15:28:44;;;;;;;4.78;3.17;;;12.40;58.60;;;;;;5023613;28;20049;-76
2022/01/11 15:31:51;;;;;;;10.68;6.35;;;12.60;56.90;;;;;;5029801;28;20045;-76
2022/01/11 15:34:55;;;;;;;6.15;3.40;;;12.70;60.00;;;;;;5026408;28;20516;-76
2022/01/11 15:38:00;;;;;;;7.07;2.60;;;13.10;60.70;;;;;;5020680;28;20049;-76
2022/01/11 15:41:04;;;;;;;7.07;3.00;;;12.90;57.90;;;;;;5026688;28;20044;-76
2022/01/11 15:44:11;;;;;;;7.95;3.08;;;12.80;58.40;;;;;;5025440;28;20045;-76
2022/01/11 15:47:15;;;;;;;5.25;2.90;;;12.70;60.90;;;;;;5024406;28;20038;-76
2022/01/11 15:50:20;;;;;;;7.03;3.92;;;11.90;62.00;;;;;;5017902;28;20040;-76
2022/01/11 15:53:26;;;;;;;7.55;3.70;;;10.90;62.70;;;;;;5020183;28;20049;-76
2022/01/11 15:56:31;;;;;;;13.57;5.18;;;10.20;65.00;;;;;;5020486;28;20052;-76
2022/01/11 15:59:35;;;;;;;15.80;10.45;;;9.40;66.00;;;;;;5021981;28;20068;-76
2022/01/11 16:02:38;;;;;;;10.65;4.78;;;9.00;71.30;;;;;;5026183;28;20408;-76
2022/01/11 16:05:43;;;;;;;9.13;4.25;;;8.70;70.10;;;;;;5010105;28;20393;-76
2022/01/11 16:08:48;;;;;;;8.00;3.88;;;8.50;69.90;;;;;;5010793;28;20469;-76
2022/01/11 16:11:52;;;;;;;6.85;2.83;;;8.20;70.60;;;;;;5018306;28;20354;-76
2022/01/11 16:14:58;;;;;;;6.90;2.90;;;8.00;71.30;;;;;;5025848;28;20453;-76
2022/01/11 16:18:02;;;;;;;5.85;2.90;;;7.70;70.30;;;;;;5027374;28;20046;-76
2022/01/11 16:21:06;;;;;;;6.28;2.58;;;7.50;69.60;;;;;;5031445;28;20041;-76
2022/01/11 16:24:11;;;;;;;5.65;3.92;;;7.40;69.60;;;;;;5029614;28;20049;-76
2022/01/11 16:27:15;;;;;;;7.25;4.30;;;7.30;69.10;;;;;;5030234;28;20358;-76